Time,TemperatureF,DewpointF,PressureIn,WindDirection,WindDirectionDegrees,WindSpeedMPH,WindSpeedGustMPH,Humidity,HourlyPrecipIn,Conditions,Clouds,dailyrainin,SoftwareType,DateUTC
2013-04-25 00:03:00,55.7,49.3,29.72,ESE,120,0.0,1.0,79,0.00,,,0.00,LWC V2.10 B1813,2013-04-25 04:03:00,
2013-04-25 00:08:00,55.6,49.2,29.73,SW,234,1.0,7.0,79,0.00,,,0.00,LWC V2.10 B1813,2013-04-25 04:08:00,
2013-04-25 00:13:00,55.5,49.1,29.73,SW,214,0.0,5.0,79,0.00,,,0.00,LWC V2.10 B1813,2013-04-25 04:13:00,
2013-04-25 00:18:00,55.4,49.0,29.72,WSW,244,0.0,4.0,79,0.00,,,0.00,LWC V2.10 B1813,2013-04-25 04:18:00,
2013-04-25 00:23:00,55.4,49.3,29.73,ESE,110,2.0,3.0,80,0.00,,,0.00,LWC V2.10 B1813,2013-04-25 04:23:00,
2013-04-25 00:28:00,55.3,49.2,29.73,ENE,64,2.0,6.0,80,0.00,,,0.00,LWC V2.10 B1813,2013-04-25 04:28:00,
2013-04-25 00:33:00,55.2,49.1,29.73,SSW,194,0.0,3.0,80,0.00,,,0.00,LWC V2.10 B1813,2013-04-25 04:33:00,
2013-04-25 00:38:00,55.1,49.4,29.73,ESE,121,2.0,8.0,81,0.00,,,0.00,LWC V2.10 B1813,2013-04-25 04:38:00,
2013-04-25 00:43:00,55.0,49.3,29.74,NW,313,0.0,2.0,81,0.00,,,0.00,LWC V2.10 B1813,2013-04-25 04:43:00,
2013-04-25 00:48:00,54.9,49.5,29.74,WNW,286,2.0,4.0,82,0.00,,,0.00,LWC V2.10 B1813,2013-04-25 04:48:00,
2013-04-25 00:53:00,54.7,49.6,29.75,SSE,159,2.0,8.0,83,0.00,,,0.00,LWC V2.10 B1813,2013-04-25 04:53:00,
2013-04-25 00:58:00,54.5,49.4,29.74,SE,140,6.0,8.0,83,0.00,,,0.00,LWC V2.10 B1813,2013-04-25 04:58:00,
2013-04-25 01:03:00,54.3,49.6,29.75,WSW,237,12.0,12.0,84,0.00,,,0.00,LWC V2.10 B1813,2013-04-25 05:03:00,
2013-04-25 01:08:00,54.2,49.5,29.75,West,268,5.0,10.0,84,0.00,,,0.00,LWC V2.10 B1813,2013-04-25 05:08:00,
2013-04-25 01:13:00,54.1,49.4,29.74,East,92,2.0,8.0,84,0.00,,,0.00,LWC V2.10 B1813,2013-04-25 05:13:00,
2013-04-25 01:18:00,54.0,49.3,29.74,ESE,112,3.0,10.0,84,0.00,,,0.00,LWC V2.10 B1813,2013-04-25 05:18:00,
2013-04-25 01:23:00,53.9,49.5,29.72,WNW,290,2.0,9.0,85,0.00,,,0.00,LWC V2.10 B1813,2013-04-25 05:23:00,
2013-04-25 01:28:00,53.8,49.4,29.75,SSE,151,3.0,3.0,85,0.00,,,0.00,LWC V2.10 B1813,2013-04-25 05:28:00,
2013-04-25 01:33:00,53.7,49.3,29.75,SE,133,2.0,8.0,85,0.00,,,0.00,LWC V2.10 B1813,2013-04-25 05:33:00,
2013-04-25 01:38:00,53.6,49.5,29.75,West,276,1.0,6.0,86,0.00,,,0.00,LWC V2.10 B1813,2013-04-25 05:38:00,
2013-04-25 01:43:00,53.6,49.5,29.76,WNW,294,3.0,7.0,86,0.00,,,0.00,LWC V2.10 B1813,2013-04-25 05:43:00,
2013-04-25 01:48:00,53.5,49.4,29.78,WNW,293,6.0,7.0,86,0.00,,,0.00,LWC V2.10 B1813,2013-04-25 05:48:00,
2013-04-25 01:53:00,53.4,49.3,29.78,West,265,6.0,10.0,86,0.00,,,0.00,LWC V2.10 B1813,2013-04-25 05:53:00,
2013-04-25 01:58:00,53.0,49.2,29.78,South,179,0.0,4.0,87,0.00,,,0.00,LWC V2.10 B1813,2013-04-25 05:58:00,
2013-04-25 02:03:00,52.6,49.1,29.78,SW,227,2.0,9.0,88,0.00,,,0.00,LWC V2.10 B1813,2013-04-25 06:03:00,
2013-04-25 02:08:00,52.2,49.1,29.78,SSW,211,2.0,3.0,89,0.00,,,0.01,LWC V2.10 B1813,2013-04-25 06:08:00,
2013-04-25 02:13:00,52.1,49.3,29.79,East,90,1.0,4.0,90,0.00,,,0.01,LWC V2.10 B1813,2013-04-25 06:13:00,
2013-04-25 02:18:00,51.8,49.3,29.78,West,270,0.0,4.0,91,0.00,,,0.01,LWC V2.10 B1813,2013-04-25 06:18:00,
2013-04-25 02:23:00,51.8,49.3,29.78,NW,307,1.0,2.0,91,0.00,,,0.01,LWC V2.10 B1813,2013-04-25 06:23:00,
2013-04-25 02:28:00,51.6,49.1,29.78,SW,234,0.0,1.0,91,0.00,,,0.01,LWC V2.10 B1813,2013-04-25 06:28:00,
2013-04-25 02:33:00,51.5,49.3,29.79,SW,234,0.0,0.0,92,0.00,,,0.01,LWC V2.10 B1813,2013-04-25 06:33:00,
2013-04-25 02:38:00,51.4,49.4,29.79,SSW,213,0.0,0.0,93,0.00,,,0.01,LWC V2.10 B1813,2013-04-25 06:38:00,
2013-04-25 02:43:00,51.3,49.3,29.80,SSW,213,0.0,0.0,93,0.00,,,0.01,LWC V2.10 B1813,2013-04-25 06:43:00,
2013-04-25 02:48:00,51.2,49.5,29.80,WSW,237,0.0,0.0,94,0.00,,,0.01,LWC V2.10 B1813,2013-04-25 06:48:00,
2013-04-25 02:53:00,51.1,49.4,29.80,NNW,336,2.0,3.0,94,0.00,,,0.01,LWC V2.10 B1813,2013-04-25 06:53:00,
2013-04-25 02:58:00,51.2,49.5,29.81,NW,308,2.0,4.0,94,0.00,,,0.01,LWC V2.10 B1813,2013-04-25 06:58:00,
2013-04-25 03:03:00,51.2,49.5,29.82,West,272,1.0,2.0,94,0.00,,,0.01,LWC V2.10 B1813,2013-04-25 07:03:00,
2013-04-25 03:08:00,51.2,49.2,29.81,WSW,255,3.0,4.0,93,0.00,,,0.01,LWC V2.10 B1813,2013-04-25 07:08:00,
2013-04-25 03:13:00,51.1,46.7,29.82,WNW,300,14.0,14.0,85,0.00,,,0.01,LWC V2.10 B1813,2013-04-25 07:13:00,
2013-04-25 03:18:00,50.7,45.7,29.83,NE,40,11.0,11.0,83,0.00,,,0.01,LWC V2.10 B1813,2013-04-25 07:18:00,
2013-04-25 03:23:00,50.4,45.1,29.83,SW,234,5.0,11.0,82,0.00,,,0.01,LWC V2.10 B1813,2013-04-25 07:23:00,
2013-04-25 03:28:00,50.1,44.2,29.84,WNW,298,7.0,13.0,80,0.00,,,0.01,LWC V2.10 B1813,2013-04-25 07:28:00,
2013-04-25 03:33:00,49.9,44.0,29.85,WNW,291,8.0,9.0,80,0.00,,,0.01,LWC V2.10 B1813,2013-04-25 07:33:00,
2013-04-25 03:38:00,49.6,44.0,29.86,NW,306,2.0,6.0,81,0.00,,,0.01,LWC V2.10 B1813,2013-04-25 07:38:00,
2013-04-25 03:43:00,49.4,42.5,29.86,West,274,6.0,14.0,77,0.00,,,0.01,LWC V2.10 B1813,2013-04-25 07:43:00,
2013-04-25 03:48:00,49.1,42.9,29.86,WSW,253,0.0,2.0,79,0.00,,,0.01,LWC V2.10 B1813,2013-04-25 07:48:00,
2013-04-25 03:53:00,48.9,42.3,29.87,NE,45,0.0,3.0,78,0.00,,,0.01,LWC V2.10 B1813,2013-04-25 07:53:00,
2013-04-25 03:58:00,48.7,41.8,29.87,WNW,293,6.0,12.0,77,0.00,,,0.01,LWC V2.10 B1813,2013-04-25 07:58:00,
2013-04-25 04:03:00,48.6,41.4,29.87,WNW,288,3.0,5.0,76,0.00,,,0.01,LWC V2.10 B1813,2013-04-25 08:03:00,
2013-04-25 04:08:00,48.3,40.7,29.88,NNE,26,4.0,12.0,75,0.00,,,0.01,LWC V2.10 B1813,2013-04-25 08:08:00,
2013-04-25 04:13:00,47.9,40.4,29.88,NW,313,3.0,13.0,75,0.00,,,0.01,LWC V2.10 B1813,2013-04-25 08:13:00,
2013-04-25 04:18:00,47.7,40.2,29.88,NNW,346,5.0,13.0,75,0.00,,,0.01,LWC V2.10 B1813,2013-04-25 08:18:00,
2013-04-25 04:23:00,47.6,40.4,29.89,NNE,24,1.0,10.0,76,0.00,,,0.01,LWC V2.10 B1813,2013-04-25 08:23:00,
2013-04-25 04:28:00,47.4,39.9,29.89,NNW,339,6.0,7.0,75,0.00,,,0.01,LWC V2.10 B1813,2013-04-25 08:28:00,
2013-04-25 04:33:00,47.2,39.3,29.89,NW,320,7.0,11.0,74,0.00,,,0.01,LWC V2.10 B1813,2013-04-25 08:33:00,
2013-04-25 04:38:00,47.0,38.8,29.90,NE,44,9.0,10.0,73,0.00,,,0.01,LWC V2.10 B1813,2013-04-25 08:38:00,
2013-04-25 04:43:00,46.9,38.4,29.90,North,2,2.0,9.0,72,0.00,,,0.01,LWC V2.10 B1813,2013-04-25 08:43:00,
2013-04-25 04:48:00,46.7,37.1,29.91,North,357,3.0,10.0,69,0.00,,,0.01,LWC V2.10 B1813,2013-04-25 08:48:00,
2013-04-25 04:53:00,46.6,37.3,29.91,WNW,287,7.0,8.0,70,0.00,,,0.01,LWC V2.10 B1813,2013-04-25 08:53:00,
2013-04-25 04:58:00,46.5,37.3,29.90,NW,320,2.0,6.0,70,0.00,,,0.01,LWC V2.10 B1813,2013-04-25 08:58:00,
2013-04-25 05:03:00,46.3,37.1,29.90,NNW,336,7.0,9.0,70,0.00,,,0.01,LWC V2.10 B1813,2013-04-25 09:03:00,
2013-04-25 05:08:00,46.1,37.2,29.92,NNW,331,6.0,7.0,71,0.00,,,0.01,LWC V2.10 B1813,2013-04-25 09:08:00,
2013-04-25 05:13:00,45.9,36.7,29.91,NW,315,4.0,8.0,70,0.00,,,0.01,LWC V2.10 B1813,2013-04-25 09:13:00,
2013-04-25 05:18:00,45.7,36.1,29.92,WNW,294,2.0,7.0,69,0.00,,,0.01,LWC V2.10 B1813,2013-04-25 09:18:00,
2013-04-25 05:23:00,45.7,36.1,29.92,NW,321,4.0,4.0,69,0.00,,,0.01,LWC V2.10 B1813,2013-04-25 09:23:00,
2013-04-25 05:28:00,45.5,35.9,29.92,ENE,77,1.0,2.0,69,0.00,,,0.01,LWC V2.10 B1813,2013-04-25 09:28:00,
2013-04-25 05:33:00,45.3,35.4,29.93,West,277,2.0,7.0,68,0.00,,,0.01,LWC V2.10 B1813,2013-04-25 09:33:00,
2013-04-25 05:38:00,45.3,35.4,29.93,NNE,24,3.0,3.0,68,0.00,,,0.01,LWC V2.10 B1813,2013-04-25 09:38:00,
2013-04-25 05:43:00,45.1,35.2,29.93,North,350,1.0,4.0,68,0.00,,,0.01,LWC V2.10 B1813,2013-04-25 09:43:00,
2013-04-25 05:48:00,44.9,35.4,29.93,West,281,0.0,1.0,69,0.00,,,0.01,LWC V2.10 B1813,2013-04-25 09:48:00,
2013-04-25 05:53:00,44.5,35.0,29.94,SE,135,2.0,5.0,69,0.00,,,0.01,LWC V2.10 B1813,2013-04-25 09:53:00,
2013-04-25 05:58:00,44.5,34.6,29.94,NW,318,4.0,14.0,68,0.00,,,0.01,LWC V2.10 B1813,2013-04-25 09:58:00,
2013-04-25 06:03:00,44.6,34.3,29.94,West,263,2.0,10.0,67,0.00,,,0.01,LWC V2.10 B1813,2013-04-25 10:03:00,
2013-04-25 06:08:00,44.5,34.2,29.95,NNE,32,4.0,4.0,67,0.00,,,0.01,LWC V2.10 B1813,2013-04-25 10:08:00,
2013-04-25 06:13:00,44.5,34.2,29.95,NW,308,3.0,12.0,67,0.00,,,0.01,LWC V2.10 B1813,2013-04-25 10:13:00,
2013-04-25 06:18:00,44.4,34.5,29.96,SSE,163,0.0,0.0,68,0.00,,,0.01,LWC V2.10 B1813,2013-04-25 10:18:00,
2013-04-25 06:23:00,44.2,34.3,29.96,WNW,291,3.0,9.0,68,0.00,,,0.01,LWC V2.10 B1813,2013-04-25 10:23:00,
2013-04-25 06:28:00,44.3,34.4,29.97,North,354,0.0,3.0,68,0.00,,,0.01,LWC V2.10 B1813,2013-04-25 10:28:00,
2013-04-25 06:33:00,44.4,34.5,29.98,South,181,2.0,3.0,68,0.00,,,0.01,LWC V2.10 B1813,2013-04-25 10:33:00,
2013-04-25 06:38:00,44.4,34.5,29.97,NW,320,3.0,10.0,68,0.00,,,0.01,LWC V2.10 B1813,2013-04-25 10:38:00,
2013-04-25 06:43:00,44.4,34.5,29.98,North,11,4.0,6.0,68,0.00,,,0.01,LWC V2.10 B1813,2013-04-25 10:43:00,
2013-04-25 06:48:00,44.5,35.0,29.98,NNW,329,1.0,5.0,69,0.00,,,0.01,LWC V2.10 B1813,2013-04-25 10:48:00,
2013-04-25 06:53:00,44.5,34.6,29.98,West,279,5.0,5.0,68,0.00,,,0.01,LWC V2.10 B1813,2013-04-25 10:53:00,
2013-04-25 06:58:00,44.7,34.8,29.99,NW,304,0.0,4.0,68,0.00,,,0.01,LWC V2.10 B1813,2013-04-25 10:58:00,
2013-04-25 07:03:00,44.8,34.9,29.99,WNW,302,1.0,4.0,68,0.00,,,0.01,LWC V2.10 B1813,2013-04-25 11:03:00,
2013-04-25 07:08:00,45.2,35.3,29.99,NNW,334,1.0,3.0,68,0.00,,,0.01,LWC V2.10 B1813,2013-04-25 11:08:00,
2013-04-25 07:13:00,45.6,34.5,29.99,SE,143,1.0,4.0,65,0.00,,,0.01,LWC V2.10 B1813,2013-04-25 11:13:00,
2013-04-25 07:18:00,46.0,34.5,30.00,WNW,302,2.0,5.0,64,0.00,,,0.01,LWC V2.10 B1813,2013-04-25 11:18:00,
2013-04-25 07:23:00,46.1,34.6,30.00,West,265,7.0,7.0,64,0.00,,,0.01,LWC V2.10 B1813,2013-04-25 11:23:00,
2013-04-25 07:28:00,46.3,34.0,30.00,West,279,10.0,17.0,62,0.00,,,0.01,LWC V2.10 B1813,2013-04-25 11:28:00,
2013-04-25 07:33:00,46.2,33.5,30.00,North,0,5.0,14.0,61,0.00,,,0.01,LWC V2.10 B1813,2013-04-25 11:33:00,
2013-04-25 07:38:00,46.1,33.4,30.00,NNW,348,7.0,12.0,61,0.00,,,0.01,LWC V2.10 B1813,2013-04-25 11:38:00,
2013-04-25 07:43:00,46.0,33.3,30.00,North,359,11.0,12.0,61,0.00,,,0.01,LWC V2.10 B1813,2013-04-25 11:43:00,
2013-04-25 07:48:00,45.9,33.2,30.00,NW,315,14.0,15.0,61,0.00,,,0.01,LWC V2.10 B1813,2013-04-25 11:48:00,
2013-04-25 07:53:00,46.0,33.3,30.01,NW,306,12.0,12.0,61,0.00,,,0.01,LWC V2.10 B1813,2013-04-25 11:53:00,
2013-04-25 07:58:00,46.2,33.5,30.01,NW,315,6.0,10.0,61,0.00,,,0.01,LWC V2.10 B1813,2013-04-25 11:58:00,
2013-04-25 08:03:00,46.4,33.7,30.01,NW,313,10.0,14.0,61,0.00,,,0.01,LWC V2.10 B1813,2013-04-25 12:03:00,
2013-04-25 08:08:00,46.4,33.3,30.01,NW,311,8.0,14.0,60,0.00,,,0.01,LWC V2.10 B1813,2013-04-25 12:08:00,
2013-04-25 08:13:00,46.5,33.4,30.02,WNW,286,7.0,12.0,60,0.00,,,0.01,LWC V2.10 B1813,2013-04-25 12:13:00,
2013-04-25 08:18:00,47.0,33.4,30.02,North,0,8.0,10.0,59,0.00,,,0.01,LWC V2.10 B1813,2013-04-25 12:18:00,
2013-04-25 08:23:00,47.3,33.3,30.01,NNW,348,8.0,14.0,58,0.00,,,0.01,LWC V2.10 B1813,2013-04-25 12:23:00,
2013-04-25 08:28:00,47.3,32.8,30.02,NNE,31,3.0,14.0,57,0.00,,,0.01,LWC V2.10 B1813,2013-04-25 12:28:00,
2013-04-25 08:33:00,47.1,32.7,30.02,NW,318,7.0,19.0,57,0.00,,,0.01,LWC V2.10 B1813,2013-04-25 12:33:00,
2013-04-25 08:38:00,46.5,32.5,30.03,NW,304,7.0,7.0,58,0.00,,,0.01,LWC V2.10 B1813,2013-04-25 12:38:00,
2013-04-25 08:43:00,46.7,32.3,30.04,NE,39,6.0,15.0,57,0.00,,,0.01,LWC V2.10 B1813,2013-04-25 12:43:00,
2013-04-25 08:48:00,47.1,32.7,30.04,NW,315,7.0,13.0,57,0.00,,,0.01,LWC V2.10 B1813,2013-04-25 12:48:00,
2013-04-25 08:53:00,47.2,32.3,30.04,NW,305,12.0,15.0,56,0.00,,,0.01,LWC V2.10 B1813,2013-04-25 12:53:00,
2013-04-25 08:58:00,47.5,32.6,30.04,NW,313,8.0,14.0,56,0.00,,,0.01,LWC V2.10 B1813,2013-04-25 12:58:00,
2013-04-25 09:03:00,47.4,32.9,30.05,SW,228,1.0,7.0,57,0.00,,,0.01,LWC V2.10 B1813,2013-04-25 13:03:00,
2013-04-25 09:08:00,47.8,33.3,30.05,NW,317,11.0,11.0,57,0.00,,,0.01,LWC V2.10 B1813,2013-04-25 13:08:00,
2013-04-25 09:13:00,47.8,32.4,30.04,North,0,3.0,9.0,55,0.00,,,0.01,LWC V2.10 B1813,2013-04-25 13:13:00,
2013-04-25 09:18:00,47.9,32.1,30.05,NNW,347,4.0,10.0,54,0.00,,,0.01,LWC V2.10 B1813,2013-04-25 13:18:00,
2013-04-25 09:23:00,48.2,33.2,30.05,NNW,338,9.0,13.0,56,0.00,,,0.01,LWC V2.10 B1813,2013-04-25 13:23:00,
2013-04-25 09:28:00,48.1,32.2,30.05,West,279,6.0,12.0,54,0.00,,,0.01,LWC V2.10 B1813,2013-04-25 13:28:00,
2013-04-25 09:33:00,47.9,32.1,30.05,WSW,258,3.0,15.0,54,0.00,,,0.01,LWC V2.10 B1813,2013-04-25 13:33:00,
2013-04-25 09:38:00,48.1,32.2,30.05,NNW,343,6.0,12.0,54,0.00,,,0.01,LWC V2.10 B1813,2013-04-25 13:38:00,
2013-04-25 09:43:00,48.5,33.5,30.05,NNW,332,9.0,11.0,56,0.00,,,0.01,LWC V2.10 B1813,2013-04-25 13:43:00,
2013-04-25 09:48:00,48.8,32.4,30.05,NW,315,9.0,9.0,53,0.00,,,0.01,LWC V2.10 B1813,2013-04-25 13:48:00,
2013-04-25 09:53:00,48.8,32.9,30.06,NNW,343,3.0,11.0,54,0.00,,,0.01,LWC V2.10 B1813,2013-04-25 13:53:00,
2013-04-25 09:58:00,48.6,32.3,30.06,NW,313,13.0,13.0,53,0.00,,,0.01,LWC V2.10 B1813,2013-04-25 13:58:00,
2013-04-25 10:03:00,48.5,32.6,30.06,WNW,298,3.0,15.0,54,0.00,,,0.01,LWC V2.10 B1813,2013-04-25 14:03:00,
2013-04-25 10:08:00,49.2,33.7,30.06,NE,37,2.0,6.0,55,0.00,,,0.01,LWC V2.10 B1813,2013-04-25 14:08:00,
2013-04-25 10:13:00,50.1,33.2,30.06,West,275,10.0,11.0,52,0.00,,,0.01,LWC V2.10 B1813,2013-04-25 14:13:00,
2013-04-25 10:18:00,49.6,32.7,30.06,West,277,5.0,5.0,52,0.00,,,0.01,LWC V2.10 B1813,2013-04-25 14:18:00,
2013-04-25 10:23:00,50.0,32.6,30.07,NNE,19,6.0,9.0,51,0.00,,,0.01,LWC V2.10 B1813,2013-04-25 14:23:00,
2013-04-25 10:28:00,50.3,33.4,30.07,North,5,4.0,15.0,52,0.00,,,0.01,LWC V2.10 B1813,2013-04-25 14:28:00,
2013-04-25 10:33:00,50.4,32.5,30.07,West,265,9.0,11.0,50,0.00,,,0.01,LWC V2.10 B1813,2013-04-25 14:33:00,
2013-04-25 10:38:00,50.4,33.0,30.07,NW,313,2.0,5.0,51,0.00,,,0.01,LWC V2.10 B1813,2013-04-25 14:38:00,
2013-04-25 10:43:00,51.4,33.4,30.07,North,9,6.0,7.0,50,0.00,,,0.01,LWC V2.10 B1813,2013-04-25 14:43:00,
2013-04-25 10:48:00,51.7,33.2,30.07,NNW,343,5.0,9.0,49,0.00,,,0.01,LWC V2.10 B1813,2013-04-25 14:48:00,
2013-04-25 10:53:00,51.8,32.7,30.07,North,353,5.0,11.0,48,0.00,,,0.01,LWC V2.10 B1813,2013-04-25 14:53:00,
2013-04-25 10:58:00,51.6,32.0,30.07,NW,306,5.0,9.0,47,0.00,,,0.01,LWC V2.10 B1813,2013-04-25 14:58:00,
2013-04-25 11:03:00,51.3,32.8,30.07,WNW,294,8.0,8.0,49,0.00,,,0.01,LWC V2.10 B1813,2013-04-25 15:03:00,
2013-04-25 11:08:00,51.8,32.7,30.07,WNW,301,1.0,11.0,48,0.00,,,0.01,LWC V2.10 B1813,2013-04-25 15:08:00,
2013-04-25 11:13:00,51.4,31.3,30.07,NW,304,3.0,14.0,46,0.00,,,0.01,LWC V2.10 B1813,2013-04-25 15:13:00,
2013-04-25 11:18:00,51.2,32.2,30.07,NNE,29,7.0,15.0,48,0.00,,,0.01,LWC V2.10 B1813,2013-04-25 15:18:00,
2013-04-25 11:23:00,51.1,32.1,30.08,NW,306,10.0,11.0,48,0.00,,,0.01,LWC V2.10 B1813,2013-04-25 15:23:00,
2013-04-25 11:28:00,51.2,32.2,30.08,ENE,69,3.0,8.0,48,0.00,,,0.01,LWC V2.10 B1813,2013-04-25 15:28:00,
2013-04-25 11:33:00,51.5,33.5,30.08,NNW,341,4.0,8.0,50,0.00,,,0.01,LWC V2.10 B1813,2013-04-25 15:33:00,
2013-04-25 11:38:00,51.7,33.2,30.08,NW,313,4.0,7.0,49,0.00,,,0.01,LWC V2.10 B1813,2013-04-25 15:38:00,
2013-04-25 11:43:00,51.8,32.2,30.08,WNW,287,4.0,11.0,47,0.00,,,0.01,LWC V2.10 B1813,2013-04-25 15:43:00,
2013-04-25 11:48:00,52.0,31.9,30.08,West,277,4.0,13.0,46,0.00,,,0.01,LWC V2.10 B1813,2013-04-25 15:48:00,
2013-04-25 11:53:00,51.9,32.3,30.08,North,359,4.0,16.0,47,0.00,,,0.01,LWC V2.10 B1813,2013-04-25 15:53:00,
2013-04-25 11:58:00,52.3,32.1,30.08,North,352,8.0,16.0,46,0.00,,,0.01,LWC V2.10 B1813,2013-04-25 15:58:00,
2013-04-25 12:03:00,52.6,33.0,30.08,NNW,334,6.0,6.0,47,0.00,,,0.01,LWC V2.10 B1813,2013-04-25 16:03:00,
2013-04-25 12:08:00,52.7,30.8,30.09,NW,315,7.0,17.0,43,0.00,,,0.01,LWC V2.10 B1813,2013-04-25 16:08:00,
2013-04-25 12:13:00,52.2,31.5,30.08,NNW,327,4.0,12.0,45,0.00,,,0.01,LWC V2.10 B1813,2013-04-25 16:13:00,
2013-04-25 12:18:00,52.7,32.5,30.09,NW,315,11.0,13.0,46,0.00,,,0.01,LWC V2.10 B1813,2013-04-25 16:18:00,
2013-04-25 12:23:00,52.4,32.2,30.09,North,6,8.0,11.0,46,0.00,,,0.01,LWC V2.10 B1813,2013-04-25 16:23:00,
2013-04-25 12:28:00,52.6,31.9,30.09,NW,320,10.0,18.0,45,0.00,,,0.01,LWC V2.10 B1813,2013-04-25 16:28:00,
2013-04-25 12:33:00,52.5,31.8,30.09,NW,318,4.0,5.0,45,0.00,,,0.01,LWC V2.10 B1813,2013-04-25 16:33:00,
2013-04-25 12:38:00,53.0,31.7,30.09,North,355,6.0,9.0,44,0.00,,,0.01,LWC V2.10 B1813,2013-04-25 16:38:00,
2013-04-25 12:43:00,53.2,31.9,30.09,North,6,10.0,13.0,44,0.00,,,0.01,LWC V2.10 B1813,2013-04-25 16:43:00,
2013-04-25 12:48:00,53.5,31.6,30.09,WNW,282,7.0,9.0,43,0.00,,,0.01,LWC V2.10 B1813,2013-04-25 16:48:00,
2013-04-25 12:53:00,53.9,31.3,30.09,WNW,297,8.0,11.0,42,0.00,,,0.01,LWC V2.10 B1813,2013-04-25 16:53:00,
2013-04-25 12:58:00,54.4,31.8,30.09,North,358,5.0,8.0,42,0.00,,,0.01,LWC V2.10 B1813,2013-04-25 16:58:00,
2013-04-25 13:03:00,53.9,31.3,30.09,WNW,296,12.0,16.0,42,0.00,,,0.01,LWC V2.10 B1813,2013-04-25 17:03:00,
2013-04-25 13:08:00,53.8,31.3,30.09,WNW,289,5.0,16.0,42,0.00,,,0.01,LWC V2.10 B1813,2013-04-25 17:08:00,
2013-04-25 13:13:00,54.0,32.0,30.09,East,80,4.0,14.0,43,0.00,,,0.01,LWC V2.10 B1813,2013-04-25 17:13:00,
2013-04-25 13:18:00,54.0,30.8,30.09,NW,305,3.0,9.0,41,0.00,,,0.01,LWC V2.10 B1813,2013-04-25 17:18:00,
2013-04-25 13:23:00,54.2,32.2,30.09,WNW,297,5.0,12.0,43,0.00,,,0.01,LWC V2.10 B1813,2013-04-25 17:23:00,
2013-04-25 13:28:00,54.3,30.5,30.09,SSE,158,3.0,5.0,40,0.00,,,0.01,LWC V2.10 B1813,2013-04-25 17:28:00,
2013-04-25 13:33:00,54.4,31.2,30.09,WNW,298,6.0,13.0,41,0.00,,,0.01,LWC V2.10 B1813,2013-04-25 17:33:00,
2013-04-25 13:38:00,54.3,30.5,30.09,West,260,10.0,10.0,40,0.00,,,0.01,LWC V2.10 B1813,2013-04-25 17:38:00,
2013-04-25 13:43:00,54.5,30.7,30.09,WNW,287,3.0,13.0,40,0.00,,,0.01,LWC V2.10 B1813,2013-04-25 17:43:00,
2013-04-25 13:48:00,55.4,31.5,30.09,NNE,23,5.0,10.0,40,0.00,,,0.01,LWC V2.10 B1813,2013-04-25 17:48:00,
2013-04-25 13:53:00,55.7,31.8,30.09,North,359,2.0,5.0,40,0.00,,,0.01,LWC V2.10 B1813,2013-04-25 17:53:00,
2013-04-25 13:58:00,55.9,31.9,30.09,WNW,296,2.0,6.0,40,0.00,,,0.01,LWC V2.10 B1813,2013-04-25 17:58:00,
2013-04-25 14:03:00,56.6,30.6,30.09,ESE,122,1.0,6.0,37,0.00,,,0.01,LWC V2.10 B1813,2013-04-25 18:03:00,
2013-04-25 14:08:00,57.1,31.1,30.09,NW,315,10.0,10.0,37,0.00,,,0.01,LWC V2.10 B1813,2013-04-25 18:08:00,
2013-04-25 14:13:00,56.5,30.5,30.09,WNW,300,9.0,13.0,37,0.00,,,0.01,LWC V2.10 B1813,2013-04-25 18:13:00,
2013-04-25 14:18:00,56.1,30.2,30.09,ENE,74,3.0,9.0,37,0.00,,,0.01,LWC V2.10 B1813,2013-04-25 18:18:00,
2013-04-25 14:23:00,56.3,31.0,30.08,NNE,21,6.0,7.0,38,0.00,,,0.01,LWC V2.10 B1813,2013-04-25 18:23:00,
2013-04-25 14:28:00,56.1,30.8,30.09,North,355,1.0,4.0,38,0.00,,,0.01,LWC V2.10 B1813,2013-04-25 18:28:00,
2013-04-25 14:33:00,56.8,30.8,30.09,NE,41,4.0,6.0,37,0.00,,,0.01,LWC V2.10 B1813,2013-04-25 18:33:00,
2013-04-25 14:38:00,57.3,30.6,30.08,North,0,5.0,7.0,36,0.00,,,0.01,LWC V2.10 B1813,2013-04-25 18:38:00,
2013-04-25 14:43:00,56.8,30.1,30.08,NW,308,4.0,7.0,36,0.00,,,0.01,LWC V2.10 B1813,2013-04-25 18:43:00,
2013-04-25 14:48:00,57.2,31.8,30.08,NNE,20,9.0,9.0,38,0.00,,,0.01,LWC V2.10 B1813,2013-04-25 18:48:00,
2013-04-25 14:53:00,57.3,29.9,30.08,NNW,339,3.0,3.0,35,0.00,,,0.01,LWC V2.10 B1813,2013-04-25 18:53:00,
2013-04-25 14:58:00,57.4,30.0,30.08,NW,320,4.0,8.0,35,0.00,,,0.01,LWC V2.10 B1813,2013-04-25 18:58:00,
2013-04-25 15:03:00,57.4,30.0,30.08,West,269,2.0,7.0,35,0.00,,,0.01,LWC V2.10 B1813,2013-04-25 19:03:00,
2013-04-25 15:08:00,57.8,29.6,30.08,North,349,3.0,8.0,34,0.00,,,0.01,LWC V2.10 B1813,2013-04-25 19:08:00,
2013-04-25 15:13:00,57.6,30.2,30.08,WNW,282,3.0,6.0,35,0.00,,,0.01,LWC V2.10 B1813,2013-04-25 19:13:00,
2013-04-25 15:18:00,57.3,27.7,30.08,WNW,286,2.0,7.0,32,0.00,,,0.01,LWC V2.10 B1813,2013-04-25 19:18:00,
2013-04-25 15:23:00,57.7,30.2,30.08,NNE,20,8.0,10.0,35,0.00,,,0.01,LWC V2.10 B1813,2013-04-25 19:23:00,
2013-04-25 15:28:00,57.8,28.9,30.08,NNE,31,5.0,14.0,33,0.00,,,0.01,LWC V2.10 B1813,2013-04-25 19:28:00,
2013-04-25 15:33:00,57.7,28.0,30.08,West,280,1.0,7.0,32,0.00,,,0.01,LWC V2.10 B1813,2013-04-25 19:33:00,
2013-04-25 15:38:00,57.8,28.1,30.08,NE,55,2.0,5.0,32,0.00,,,0.01,LWC V2.10 B1813,2013-04-25 19:38:00,
2013-04-25 15:43:00,57.9,29.7,30.09,NNW,347,2.0,10.0,34,0.00,,,0.01,LWC V2.10 B1813,2013-04-25 19:43:00,
2013-04-25 15:48:00,58.9,29.9,30.08,North,350,2.0,6.0,33,0.00,,,0.01,LWC V2.10 B1813,2013-04-25 19:48:00,
2013-04-25 15:53:00,58.8,29.8,30.08,WNW,289,2.0,5.0,33,0.00,,,0.01,LWC V2.10 B1813,2013-04-25 19:53:00,
2013-04-25 15:58:00,58.4,27.1,30.08,NW,308,4.0,9.0,30,0.00,,,0.01,LWC V2.10 B1813,2013-04-25 19:58:00,
2013-04-25 16:03:00,58.0,27.5,30.08,ENE,64,2.0,11.0,31,0.00,,,0.01,LWC V2.10 B1813,2013-04-25 20:03:00,
2013-04-25 16:08:00,58.0,26.7,30.08,WSW,249,2.0,8.0,30,0.00,,,0.01,LWC V2.10 B1813,2013-04-25 20:08:00,
2013-04-25 16:13:00,58.2,27.7,30.09,North,350,3.0,10.0,31,0.00,,,0.01,LWC V2.10 B1813,2013-04-25 20:13:00,
2013-04-25 16:18:00,58.4,27.9,30.09,NW,322,4.0,9.0,31,0.00,,,0.01,LWC V2.10 B1813,2013-04-25 20:18:00,
2013-04-25 16:23:00,58.3,27.0,30.09,North,5,2.0,4.0,30,0.00,,,0.01,LWC V2.10 B1813,2013-04-25 20:23:00,
2013-04-25 16:28:00,58.6,27.3,30.09,South,178,1.0,4.0,30,0.00,,,0.01,LWC V2.10 B1813,2013-04-25 20:28:00,
2013-04-25 16:33:00,58.5,27.2,30.09,WNW,295,0.0,3.0,30,0.00,,,0.01,LWC V2.10 B1813,2013-04-25 20:33:00,
2013-04-25 16:38:00,58.6,27.3,30.09,NW,310,8.0,9.0,30,0.00,,,0.01,LWC V2.10 B1813,2013-04-25 20:38:00,
2013-04-25 16:43:00,58.6,27.3,30.09,NW,318,4.0,10.0,30,0.00,,,0.01,LWC V2.10 B1813,2013-04-25 20:43:00,
2013-04-25 16:48:00,58.3,25.3,30.09,NNW,332,2.0,3.0,28,0.00,,,0.01,LWC V2.10 B1813,2013-04-25 20:48:00,
2013-04-25 16:53:00,59.1,26.9,30.09,NW,311,6.0,6.0,29,0.00,,,0.01,LWC V2.10 B1813,2013-04-25 20:53:00,
2013-04-25 16:58:00,59.1,27.7,30.10,NW,313,2.0,4.0,30,0.00,,,0.01,LWC V2.10 B1813,2013-04-25 20:58:00,
2013-04-25 17:03:00,59.2,27.0,30.09,NNW,334,7.0,8.0,29,0.00,,,0.01,LWC V2.10 B1813,2013-04-25 21:03:00,
2013-04-25 17:08:00,58.9,26.7,30.10,WNW,301,2.0,7.0,29,0.00,,,0.01,LWC V2.10 B1813,2013-04-25 21:08:00,
2013-04-25 17:13:00,58.9,27.5,30.10,West,279,1.0,3.0,30,0.00,,,0.01,LWC V2.10 B1813,2013-04-25 21:13:00,
2013-04-25 17:18:00,59.5,27.2,30.10,WNW,285,0.0,1.0,29,0.00,,,0.01,LWC V2.10 B1813,2013-04-25 21:18:00,
2013-04-25 17:23:00,59.7,26.5,30.10,North,359,3.0,7.0,28,0.00,,,0.01,LWC V2.10 B1813,2013-04-25 21:23:00,
2013-04-25 17:28:00,58.9,26.7,30.10,NW,315,4.0,4.0,29,0.00,,,0.01,LWC V2.10 B1813,2013-04-25 21:28:00,
2013-04-25 17:33:00,58.8,26.6,30.10,WNW,294,5.0,7.0,29,0.00,,,0.01,LWC V2.10 B1813,2013-04-25 21:33:00,
2013-04-25 17:38:00,59.0,27.6,30.10,NNW,331,5.0,6.0,30,0.00,,,0.01,LWC V2.10 B1813,2013-04-25 21:38:00,
2013-04-25 17:43:00,59.1,26.9,30.10,WNW,294,1.0,3.0,29,0.00,,,0.01,LWC V2.10 B1813,2013-04-25 21:43:00,
2013-04-25 17:48:00,59.0,27.6,30.10,NNW,348,2.0,5.0,30,0.00,,,0.01,LWC V2.10 B1813,2013-04-25 21:48:00,
2013-04-25 17:53:00,58.8,26.6,30.11,NNW,336,3.0,8.0,29,0.00,,,0.01,LWC V2.10 B1813,2013-04-25 21:53:00,
2013-04-25 17:58:00,58.7,26.5,30.11,WNW,298,4.0,5.0,29,0.00,,,0.01,LWC V2.10 B1813,2013-04-25 21:58:00,
2013-04-25 18:03:00,58.6,25.6,30.11,SE,137,0.0,5.0,28,0.00,,,0.01,LWC V2.10 B1813,2013-04-25 22:03:00,
2013-04-25 18:08:00,59.1,26.9,30.11,South,179,4.0,4.0,29,0.00,,,0.01,LWC V2.10 B1813,2013-04-25 22:08:00,
2013-04-25 18:13:00,58.8,26.6,30.11,NNW,348,4.0,7.0,29,0.00,,,0.01,LWC V2.10 B1813,2013-04-25 22:13:00,
2013-04-25 18:18:00,58.4,26.3,30.11,NNW,339,2.0,8.0,29,0.00,,,0.01,LWC V2.10 B1813,2013-04-25 22:18:00,
2013-04-25 18:23:00,58.2,26.9,30.12,West,279,4.0,4.0,30,0.00,,,0.01,LWC V2.10 B1813,2013-04-25 22:23:00,
2013-04-25 18:28:00,58.3,26.2,30.12,West,265,1.0,4.0,29,0.00,,,0.01,LWC V2.10 B1813,2013-04-25 22:28:00,
2013-04-25 18:33:00,58.5,25.5,30.12,NNW,331,1.0,4.0,28,0.00,,,0.01,LWC V2.10 B1813,2013-04-25 22:33:00,
2013-04-25 18:38:00,58.4,25.4,30.12,West,275,0.0,3.0,28,0.00,,,0.01,LWC V2.10 B1813,2013-04-25 22:38:00,
2013-04-25 18:43:00,58.1,29.2,30.12,WNW,301,0.0,1.0,33,0.00,,,0.01,LWC V2.10 B1813,2013-04-25 22:43:00,
2013-04-25 18:48:00,57.9,25.8,30.12,NW,309,1.0,1.0,29,0.00,,,0.01,LWC V2.10 B1813,2013-04-25 22:48:00,
2013-04-25 18:53:00,57.3,26.1,30.13,NNW,329,1.0,2.0,30,0.00,,,0.01,LWC V2.10 B1813,2013-04-25 22:53:00,
2013-04-25 18:58:00,56.1,27.4,30.13,WNW,300,4.0,4.0,33,0.00,,,0.01,LWC V2.10 B1813,2013-04-25 22:58:00,
2013-04-25 19:03:00,55.6,27.0,30.13,NW,306,1.0,2.0,33,0.00,,,0.01,LWC V2.10 B1813,2013-04-25 23:03:00,
2013-04-25 19:08:00,54.9,29.1,30.13,WNW,298,1.0,1.0,37,0.00,,,0.01,LWC V2.10 B1813,2013-04-25 23:08:00,
2013-04-25 19:13:00,53.9,31.9,30.14,WNW,293,1.0,1.0,43,0.00,,,0.01,LWC V2.10 B1813,2013-04-25 23:13:00,
2013-04-25 19:18:00,52.9,30.4,30.14,WNW,288,1.0,1.0,42,0.00,,,0.01,LWC V2.10 B1813,2013-04-25 23:18:00,
2013-04-25 19:23:00,52.1,30.9,30.14,WNW,293,1.0,2.0,44,0.00,,,0.01,LWC V2.10 B1813,2013-04-25 23:23:00,
2013-04-25 19:28:00,51.4,31.9,30.14,WNW,286,1.0,2.0,47,0.00,,,0.01,LWC V2.10 B1813,2013-04-25 23:28:00,
2013-04-25 19:33:00,50.4,32.5,30.15,WNW,294,1.0,2.0,50,0.00,,,0.01,LWC V2.10 B1813,2013-04-25 23:33:00,
2013-04-25 19:38:00,49.6,32.7,30.15,WNW,286,2.0,2.0,52,0.00,,,0.01,LWC V2.10 B1813,2013-04-25 23:38:00,
2013-04-25 19:43:00,48.9,32.1,30.15,WNW,294,2.0,2.0,52,0.00,,,0.01,LWC V2.10 B1813,2013-04-25 23:43:00,
2013-04-25 19:48:00,48.3,32.9,30.15,WNW,297,1.0,1.0,55,0.00,,,0.01,LWC V2.10 B1813,2013-04-25 23:48:00,
2013-04-25 19:53:00,47.7,32.3,30.15,WNW,296,2.0,2.0,55,0.00,,,0.01,LWC V2.10 B1813,2013-04-25 23:53:00,
2013-04-25 19:58:00,47.2,31.9,30.15,WNW,286,2.0,2.0,55,0.00,,,0.01,LWC V2.10 B1813,2013-04-25 23:58:00,
2013-04-25 20:03:00,46.8,31.9,30.15,WNW,290,2.0,2.0,56,0.00,,,0.01,LWC V2.10 B1813,2013-04-26 00:03:00,
2013-04-25 20:08:00,46.4,32.0,30.16,WNW,294,2.0,2.0,57,0.00,,,0.01,LWC V2.10 B1813,2013-04-26 00:08:00,
2013-04-25 20:13:00,46.1,32.2,30.16,WNW,293,1.0,1.0,58,0.00,,,0.01,LWC V2.10 B1813,2013-04-26 00:13:00,
2013-04-25 20:18:00,45.8,32.3,30.17,WNW,294,2.0,2.0,59,0.00,,,0.01,LWC V2.10 B1813,2013-04-26 00:18:00,
2013-04-25 20:23:00,45.5,31.6,30.17,WNW,296,2.0,3.0,58,0.00,,,0.01,LWC V2.10 B1813,2013-04-26 00:23:00,
2013-04-25 20:28:00,45.3,31.8,30.17,WNW,301,2.0,2.0,59,0.00,,,0.01,LWC V2.10 B1813,2013-04-26 00:28:00,
2013-04-25 20:33:00,44.9,32.7,30.18,WNW,296,0.0,0.0,62,0.00,,,0.01,LWC V2.10 B1813,2013-04-26 00:33:00,
2013-04-25 20:38:00,43.9,32.5,30.18,WNW,283,0.0,0.0,64,0.00,,,0.01,LWC V2.10 B1813,2013-04-26 00:38:00,
2013-04-25 20:43:00,43.5,32.1,30.18,West,265,0.0,2.0,64,0.00,,,0.01,LWC V2.10 B1813,2013-04-26 00:43:00,
2013-04-25 20:48:00,43.5,32.1,30.18,WNW,291,1.0,2.0,64,0.00,,,0.01,LWC V2.10 B1813,2013-04-26 00:48:00,
2013-04-25 20:53:00,43.2,32.6,30.19,WNW,293,0.0,1.0,66,0.00,,,0.01,LWC V2.10 B1813,2013-04-26 00:53:00,
2013-04-25 20:58:00,42.7,32.9,30.19,WNW,293,1.0,1.0,68,0.00,,,0.01,LWC V2.10 B1813,2013-04-26 00:58:00,
2013-04-25 21:03:00,42.5,32.7,30.19,WNW,293,0.0,1.0,68,0.00,,,0.01,LWC V2.10 B1813,2013-04-26 01:03:00,
2013-04-25 21:08:00,42.2,32.8,30.19,WNW,293,0.0,1.0,69,0.00,,,0.01,LWC V2.10 B1813,2013-04-26 01:08:00,
2013-04-25 21:13:00,42.0,32.9,30.20,WNW,293,0.0,0.0,70,0.00,,,0.01,LWC V2.10 B1813,2013-04-26 01:13:00,
2013-04-25 21:18:00,41.7,32.6,30.20,WNW,293,0.0,0.0,70,0.00,,,0.01,LWC V2.10 B1813,2013-04-26 01:18:00,
2013-04-25 21:23:00,41.3,32.6,30.20,WNW,293,0.0,0.0,71,0.00,,,0.01,LWC V2.10 B1813,2013-04-26 01:23:00,
2013-04-25 21:28:00,41.0,32.3,30.20,WNW,293,0.0,0.0,71,0.00,,,0.01,LWC V2.10 B1813,2013-04-26 01:28:00,
2013-04-25 21:33:00,40.8,32.1,30.21,WNW,293,0.0,0.0,71,0.00,,,0.01,LWC V2.10 B1813,2013-04-26 01:33:00,
2013-04-25 21:38:00,40.6,32.3,30.21,WNW,293,0.0,0.0,72,0.00,,,0.01,LWC V2.10 B1813,2013-04-26 01:38:00,
2013-04-25 21:43:00,40.1,31.8,30.21,WNW,293,0.0,0.0,72,0.00,,,0.01,LWC V2.10 B1813,2013-04-26 01:43:00,
2013-04-25 21:48:00,39.9,32.0,30.21,WNW,291,1.0,1.0,73,0.00,,,0.01,LWC V2.10 B1813,2013-04-26 01:48:00,
2013-04-25 21:53:00,39.9,32.0,30.21,WNW,300,1.0,1.0,73,0.00,,,0.01,LWC V2.10 B1813,2013-04-26 01:53:00,
2013-04-25 21:58:00,39.7,31.8,30.22,WNW,298,0.0,0.0,73,0.00,,,0.01,LWC V2.10 B1813,2013-04-26 01:58:00,
2013-04-25 22:03:00,39.2,31.6,30.22,WNW,298,0.0,0.0,74,0.00,,,0.01,LWC V2.10 B1813,2013-04-26 02:03:00,
2013-04-25 22:08:00,38.8,31.6,30.22,WSW,249,2.0,2.0,75,0.00,,,0.01,LWC V2.10 B1813,2013-04-26 02:08:00,
2013-04-25 22:13:00,38.5,31.3,30.22,NW,308,1.0,2.0,75,0.00,,,0.01,LWC V2.10 B1813,2013-04-26 02:13:00,
2013-04-25 22:18:00,38.5,31.6,30.23,West,275,1.0,1.0,76,0.00,,,0.01,LWC V2.10 B1813,2013-04-26 02:18:00,
2013-04-25 22:23:00,38.4,31.5,30.23,West,265,0.0,0.0,76,0.00,,,0.01,LWC V2.10 B1813,2013-04-26 02:23:00,
2013-04-25 22:28:00,38.0,31.4,30.23,West,265,0.0,0.0,77,0.00,,,0.01,LWC V2.10 B1813,2013-04-26 02:28:00,
2013-04-25 22:33:00,37.7,31.2,30.23,WNW,291,1.0,1.0,77,0.00,,,0.01,LWC V2.10 B1813,2013-04-26 02:33:00,
2013-04-25 22:38:00,37.7,31.2,30.23,WNW,293,0.0,0.0,77,0.00,,,0.01,LWC V2.10 B1813,2013-04-26 02:38:00,
2013-04-25 22:43:00,37.5,31.0,30.23,WNW,293,0.0,0.0,77,0.00,,,0.01,LWC V2.10 B1813,2013-04-26 02:43:00,
2013-04-25 22:48:00,37.2,31.0,30.23,WNW,293,0.0,0.0,78,0.00,,,0.01,LWC V2.10 B1813,2013-04-26 02:48:00,
2013-04-25 22:53:00,36.8,30.9,30.23,WNW,294,1.0,1.0,79,0.00,,,0.01,LWC V2.10 B1813,2013-04-26 02:53:00,
2013-04-25 22:58:00,36.5,30.6,30.24,WNW,293,0.0,1.0,79,0.00,,,0.01,LWC V2.10 B1813,2013-04-26 02:58:00,
2013-04-25 23:03:00,36.5,30.3,30.24,WNW,293,0.0,0.0,78,0.00,,,0.01,LWC V2.10 B1813,2013-04-26 03:03:00,
2013-04-25 23:08:00,36.4,30.5,30.24,WNW,293,0.0,0.0,79,0.00,,,0.01,LWC V2.10 B1813,2013-04-26 03:08:00,
2013-04-25 23:13:00,36.0,30.4,30.24,WNW,293,0.0,0.0,80,0.00,,,0.01,LWC V2.10 B1813,2013-04-26 03:13:00,
2013-04-25 23:18:00,35.6,30.4,30.24,WNW,293,0.0,0.0,81,0.00,,,0.01,LWC V2.10 B1813,2013-04-26 03:18:00,
2013-04-25 23:23:00,35.4,30.2,30.24,WNW,293,0.0,0.0,81,0.00,,,0.01,LWC V2.10 B1813,2013-04-26 03:23:00,
2013-04-25 23:28:00,35.1,30.2,30.25,WNW,293,0.0,0.0,82,0.00,,,0.01,LWC V2.10 B1813,2013-04-26 03:28:00,
2013-04-25 23:33:00,35.1,30.2,30.25,WNW,284,0.0,0.0,82,0.00,,,0.01,LWC V2.10 B1813,2013-04-26 03:33:00,
2013-04-25 23:38:00,35.1,29.9,30.25,WNW,284,0.0,0.0,81,0.00,,,0.01,LWC V2.10 B1813,2013-04-26 03:38:00,
2013-04-25 23:43:00,35.0,29.8,30.25,WNW,282,0.0,0.0,81,0.00,,,0.01,LWC V2.10 B1813,2013-04-26 03:43:00,
2013-04-25 23:48:00,34.9,29.7,30.25,WNW,284,0.0,0.0,81,0.00,,,0.01,LWC V2.10 B1813,2013-04-26 03:48:00,
2013-04-25 23:53:00,34.7,29.5,30.25,WNW,289,0.0,0.0,81,0.00,,,0.01,LWC V2.10 B1813,2013-04-26 03:53:00,
2013-04-25 23:58:00,34.2,29.3,30.26,WNW,288,0.0,0.0,82,0.00,,,0.01,LWC V2.10 B1813,2013-04-26 03:58:00,